Time;durP1;ratioP1;P1;durP2;ratioP2;P2;SDS_P1;SDS_P2;PMS_P1;PMS_P2;Temp;Humidity;BMP_temperature;BMP_pressure;BME280_temperature;BME280_humidity;BME280_pressure;Samples;Min_cycle;Max_cycle;Signal;HPM_P1;HPM_P2
2023/01/06 00:08:31;;;;;;;8.2;2.9;;;;;;;5.4;78.6;99040;;;;
2023/01/06 00:19:31;;;;;;;6.3;3;;;;;;;5.4;78.7;99040;;;;
2023/01/06 00:30:32;;;;;;;6.3;3;;;;;;;5.4;79.4;99050;;;;
2023/01/06 00:42:03;;;;;;;5.5;2.9;;;;;;;5.4;78.8;99060;;;;
2023/01/06 00:51:31;;;;;;;5.5;2.9;;;;;;;5.3;77.7;99080;;;;
2023/01/06 01:02:32;;;;;;;5.5;2.9;;;;;;;5.3;78.9;99100;;;;
2023/01/06 01:13:31;;;;;;;4.9;2.5;;;;;;;5.3;78.7;99110;;;;
2023/01/06 01:24:32;;;;;;;4.9;2.5;;;;;;;5.3;78.3;99130;;;;
2023/01/06 01:34:32;;;;;;;4.9;2.5;;;;;;;5.2;78.5;99140;;;;
2023/01/06 01:45:32;;;;;;;3.8;2.2;;;;;;;5.1;79.3;99140;;;;
2023/01/06 01:55:32;;;;;;;3.8;2.2;;;;;;;5;79.7;99150;;;;
2023/01/06 02:06:32;;;;;;;3.8;2.2;;;;;;;5;79.3;99160;;;;
2023/01/06 02:17:32;;;;;;;6.5;2.9;;;;;;;5;78.5;99180;;;;
2023/01/06 02:27:31;;;;;;;6.5;2.9;;;;;;;4.8;78.2;99190;;;;
2023/01/06 02:37:32;;;;;;;6.5;2.9;;;;;;;4.7;78.3;99190;;;;
2023/01/06 02:48:32;;;;;;;5.4;2;;;;;;;4.6;78.3;99200;;;;
2023/01/06 02:59:31;;;;;;;5.4;2;;;;;;;4.5;78.4;99210;;;;
2023/01/06 03:09:32;;;;;;;5;2.1;;;;;;;4.5;78.6;99220;;;;
2023/01/06 03:20:32;;;;;;;5;2.1;;;;;;;4.5;78.4;99220;;;;
2023/01/06 03:31:32;;;;;;;5;2.1;;;;;;;4.5;79.2;99220;;;;
2023/01/06 03:43:10;;;;;;;4.7;2.3;;;;;;;4.4;79.6;99220;;;;
2023/01/06 03:52:32;;;;;;;4.7;2.3;;;;;;;4.4;79.6;99220;;;;
2023/01/06 04:03:32;;;;;;;4.7;2.3;;;;;;;4.4;79.5;99230;;;;
2023/01/06 04:14:32;;;;;;;4;2.3;;;;;;;4.4;79.7;99240;;;;
2023/01/06 04:25:32;;;;;;;4;2.3;;;;;;;4.4;79.9;99260;;;;
2023/01/06 04:36:32;;;;;;;4;2.3;;;;;;;4.3;80;99270;;;;
2023/01/06 04:46:32;;;;;;;4.9;2.5;;;;;;;4.3;80.3;99270;;;;
2023/01/06 04:57:32;;;;;;;4.9;2.5;;;;;;;4.2;80.5;99270;;;;
2023/01/06 05:08:32;;;;;;;4.9;2.5;;;;;;;4.2;80.7;99290;;;;
2023/01/06 05:19:32;;;;;;;7.8;3;;;;;;;4.2;80.8;99300;;;;
2023/01/06 05:30:32;;;;;;;7.8;3;;;;;;;4.2;80.8;99300;;;;
2023/01/06 05:41:32;;;;;;;5.7;2.9;;;;;;;4.1;81.1;99300;;;;
2023/01/06 05:51:32;;;;;;;5.7;2.9;;;;;;;4;81.3;99290;;;;
2023/01/06 06:01:32;;;;;;;5.7;2.9;;;;;;;3.8;81.5;99300;;;;
2023/01/06 06:12:32;;;;;;;6.7;3.1;;;;;;;3.5;82;99310;;;;
2023/01/06 06:22:32;;;;;;;6.7;3.1;;;;;;;3.3;82.4;99320;;;;
2023/01/06 06:32:32;;;;;;;6.7;3.1;;;;;;;3.2;82.6;99340;;;;
2023/01/06 06:43:32;;;;;;;8;4.2;;;;;;;3;83.3;99350;;;;
2023/01/06 06:53:32;;;;;;;8;4.2;;;;;;;3;83.8;99360;;;;
2023/01/06 07:03:32;;;;;;;8;4.2;;;;;;;3.1;83.8;99370;;;;
2023/01/06 07:13:32;;;;;;;5.9;2.9;;;;;;;3.2;83.8;99370;;;;
2023/01/06 07:23:32;;;;;;;5.9;2.9;;;;;;;3.4;82.9;99380;;;;
2023/01/06 07:34:32;;;;;;;5.9;2.9;;;;;;;3.6;82.8;99390;;;;
2023/01/06 07:44:32;;;;;;;7.3;3.8;;;;;;;3.7;82;99400;;;;
2023/01/06 07:54:32;;;;;;;7.3;3.8;;;;;;;3.9;80.8;99400;;;;
2023/01/06 08:04:32;;;;;;;7.3;3.8;;;;;;;4;80.3;99400;;;;
2023/01/06 08:14:32;;;;;;;6;3.1;;;;;;;4.2;80;99410;;;;
2023/01/06 08:25:32;;;;;;;6;3.1;;;;;;;4.3;79.1;99420;;;;
2023/01/06 08:36:32;;;;;;;6;3.1;;;;;;;4.6;79.3;99420;;;;
2023/01/06 08:46:32;;;;;;;8.3;4.6;;;;;;;4.8;77.6;99430;;;;
2023/01/06 08:57:32;;;;;;;8.3;4.6;;;;;;;5;77.2;99430;;;;
2023/01/06 09:07:32;;;;;;;8.3;4.6;;;;;;;4.9;75.8;99430;;;;
2023/01/06 09:18:32;;;;;;;6.9;3.3;;;;;;;5.2;75.2;99440;;;;
2023/01/06 09:29:32;;;;;;;6.9;3.3;;;;;;;5.5;74;99430;;;;
2023/01/06 09:39:32;;;;;;;4.8;2.9;;;;;;;5.5;72.8;99420;;;;
2023/01/06 09:50:32;;;;;;;4.8;2.9;;;;;;;5.6;73.4;99400;;;;
2023/01/06 10:00:32;;;;;;;4.8;2.9;;;;;;;5.6;72.6;99380;;;;
2023/01/06 10:10:32;;;;;;;6.8;3.9;;;;;;;5.4;73.1;99360;;;;
2023/01/06 10:21:32;;;;;;;6.8;3.9;;;;;;;5.6;73.2;99360;;;;
2023/01/06 10:32:32;;;;;;;6.8;3.9;;;;;;;5.7;72.9;99340;;;;
2023/01/06 10:43:32;;;;;;;14.3;8.7;;;;;;;5.8;73.3;99320;;;;
2023/01/06 10:53:32;;;;;;;14.3;8.7;;;;;;;5.7;73.1;99320;;;;
2023/01/06 11:03:32;;;;;;;14.3;8.7;;;;;;;5.8;73.7;99320;;;;
2023/01/06 11:14:32;;;;;;;7.5;4.6;;;;;;;6;73.2;99310;;;;
2023/01/06 11:24:32;;;;;;;7.5;4.6;;;;;;;6;72.9;99290;;;;
2023/01/06 11:34:32;;;;;;;7.5;4.6;;;;;;;6;73;99290;;;;
2023/01/06 11:44:32;;;;;;;7.6;4.5;;;;;;;6.3;73.7;99290;;;;
2023/01/06 11:55:32;;;;;;;7.6;4.5;;;;;;;6.5;72.6;99290;;;;
2023/01/06 12:05:33;;;;;;;7.6;4.5;;;;;;;6.7;72.5;99280;;;;
2023/01/06 12:15:32;;;;;;;6.9;4.9;;;;;;;7;72.7;99270;;;;
2023/01/06 12:25:32;;;;;;;6.9;4.9;;;;;;;7.3;71.8;99260;;;;
2023/01/06 12:36:32;;;;;;;6.9;4.9;;;;;;;7.5;70.1;99220;;;;
2023/01/06 12:47:33;;;;;;;8.7;5.6;;;;;;;7.7;69.1;99210;;;;
2023/01/06 12:57:32;;;;;;;8.7;5.6;;;;;;;7.9;69.4;99210;;;;
2023/01/06 13:08:32;;;;;;;9.8;5.5;;;;;;;8;69.4;99210;;;;
2023/01/06 13:18:32;;;;;;;9.8;5.5;;;;;;;8;69.9;99180;;;;
2023/01/06 13:29:32;;;;;;;9.8;5.5;;;;;;;7.9;69.5;99170;;;;
2023/01/06 13:39:32;;;;;;;7.6;4.6;;;;;;;7.7;70.1;99150;;;;
2023/01/06 13:49:32;;;;;;;7.6;4.6;;;;;;;7.7;70.7;99150;;;;
2023/01/06 14:00:32;;;;;;;7.6;4.6;;;;;;;7.3;70.8;99130;;;;
2023/01/06 14:10:32;;;;;;;9.2;6.3;;;;;;;7;71.4;99120;;;;
2023/01/06 14:21:32;;;;;;;9.2;6.3;;;;;;;6.8;71.7;99120;;;;
2023/01/06 14:31:32;;;;;;;9.2;6.3;;;;;;;6.5;72.6;99090;;;;
2023/01/06 14:41:32;;;;;;;15.2;9;;;;;;;6.2;73.4;99080;;;;
2023/01/06 14:51:33;;;;;;;15.2;9;;;;;;;6;74.1;99090;;;;
2023/01/06 15:02:32;;;;;;;15.2;9;;;;;;;5.9;75.1;99100;;;;
2023/01/06 15:13:32;;;;;;;13.7;10.9;;;;;;;5.7;76.2;99080;;;;
2023/01/06 15:23:32;;;;;;;13.7;10.9;;;;;;;5.8;76.5;99070;;;;
2023/01/06 15:34:32;;;;;;;13.7;10.9;;;;;;;5.7;76.7;99070;;;;
2023/01/06 15:45:32;;;;;;;21.7;14;;;;;;;5.6;77.2;99070;;;;
2023/01/06 15:56:32;;;;;;;21.7;14;;;;;;;5.5;77.6;99070;;;;
2023/01/06 16:06:32;;;;;;;21.7;14;;;;;;;5.5;78.1;99070;;;;
2023/01/06 16:17:32;;;;;;;20.1;15.7;;;;;;;5.4;78.8;99040;;;;
2023/01/06 16:27:32;;;;;;;20.1;15.7;;;;;;;5.4;79;99040;;;;
2023/01/06 16:38:32;;;;;;;52.1;35.2;;;;;;;5.4;79.4;99040;;;;
2023/01/06 16:49:32;;;;;;;52.1;35.2;;;;;;;5.5;79.9;99030;;;;
2023/01/06 17:00:32;;;;;;;52.1;35.2;;;;;;;5.5;79.5;99020;;;;
2023/01/06 17:11:33;;;;;;;38.4;28.7;;;;;;;5.4;79.3;99010;;;;
2023/01/06 17:21:32;;;;;;;38.4;28.7;;;;;;;5.4;79.6;99010;;;;
2023/01/06 17:31:32;;;;;;;38.4;28.7;;;;;;;5.4;80.2;99010;;;;
2023/01/06 17:42:34;;;;;;;49.6;35.5;;;;;;;5.5;80.4;99020;;;;
2023/01/06 17:52:32;;;;;;;49.6;35.5;;;;;;;5.6;80.7;99030;;;;
2023/01/06 18:02:32;;;;;;;49.6;35.5;;;;;;;5.5;81.2;99020;;;;
2023/01/06 18:13:32;;;;;;;49;38.8;;;;;;;5.5;81.5;99020;;;;
2023/01/06 18:23:32;;;;;;;49;38.8;;;;;;;5.6;82.1;99020;;;;
2023/01/06 18:34:32;;;;;;;49;38.8;;;;;;;5.7;82.4;99030;;;;
2023/01/06 18:45:34;;;;;;;44.8;35.8;;;;;;;5.8;82.9;99030;;;;
2023/01/06 18:56:32;;;;;;;44.8;35.8;;;;;;;5.8;83.2;99030;;;;
2023/01/06 19:07:32;;;;;;;47.7;35.5;;;;;;;5.7;83.4;99000;;;;
2023/01/06 19:18:32;;;;;;;47.7;35.5;;;;;;;5.8;83.6;99000;;;;
2023/01/06 19:29:32;;;;;;;47.7;35.5;;;;;;;5.8;83.6;99000;;;;
2023/01/06 19:39:32;;;;;;;51.6;40;;;;;;;5.7;84.7;99000;;;;
2023/01/06 19:49:32;;;;;;;51.6;40;;;;;;;6;84.6;99010;;;;
2023/01/06 19:59:32;;;;;;;51.6;40;;;;;;;6.1;84.6;99020;;;;
2023/01/06 20:10:32;;;;;;;53.8;43.8;;;;;;;6.1;84.4;99020;;;;
2023/01/06 20:20:32;;;;;;;53.8;43.8;;;;;;;6.1;84.6;99020;;;;
2023/01/06 20:30:32;;;;;;;53.8;43.8;;;;;;;6.1;84.8;99030;;;;
2023/01/06 20:41:32;;;;;;;51.1;42.3;;;;;;;6.1;85.1;99060;;;;
2023/01/06 20:52:32;;;;;;;51.1;42.3;;;;;;;6.1;85.2;99060;;;;
2023/01/06 21:02:32;;;;;;;51.1;42.3;;;;;;;6.2;85.2;99070;;;;
2023/01/06 21:12:32;;;;;;;45.8;36.7;;;;;;;6.1;87.3;99050;;;;
2023/01/06 21:23:32;;;;;;;45.8;36.7;;;;;;;6.2;88.4;99060;;;;
2023/01/06 21:34:32;;;;;;;45.8;36.7;;;;;;;6.4;88.6;99080;;;;
2023/01/06 21:45:32;;;;;;;40.9;36;;;;;;;6.6;90.3;99090;;;;
2023/01/06 21:55:32;;;;;;;40.9;36;;;;;;;6.7;90.7;99100;;;;
2023/01/06 22:05:32;;;;;;;40.9;36;;;;;;;6.9;91.1;99100;;;;
2023/01/06 22:15:32;;;;;;;40.5;33.7;;;;;;;7;91.4;99110;;;;
2023/01/06 22:26:32;;;;;;;40.5;33.7;;;;;;;7.1;91.6;99130;;;;
2023/01/06 22:37:32;;;;;;;37.2;29.8;;;;;;;7.3;91.7;99130;;;;
2023/01/06 22:48:32;;;;;;;37.2;29.8;;;;;;;7.4;91.8;99110;;;;
2023/01/06 22:58:32;;;;;;;37.2;29.8;;;;;;;7.5;91.9;99130;;;;
2023/01/06 23:08:32;;;;;;;28.4;23.4;;;;;;;7.6;91.9;99120;;;;
2023/01/06 23:19:32;;;;;;;28.4;23.4;;;;;;;7.8;92;99130;;;;
2023/01/06 23:29:32;;;;;;;28.4;23.4;;;;;;;7.9;92;99130;;;;
2023/01/06 23:40:32;;;;;;;20.7;13.3;;;;;;;8.1;91.7;99140;;;;
2023/01/06 23:51:32;;;;;;;20.7;13.3;;;;;;;8.2;91.3;99150;;;;
